Time;durP1;ratioP1;P1;durP2;ratioP2;P2;SDS_P1;SDS_P2;PMS_P1;PMS_P2;Temp;Humidity;BMP_temperature;BMP_pressure;BME280_temperature;BME280_humidity;BME280_pressure;Samples;Min_cycle;Max_cycle;Signal;HPM_P1;HPM_P2
2020/12/29 00:00:48;;;;;;;9.17;8.57;;;;;;;6.65;93.05;96184.22;2033288;29;20223;-72
2020/12/29 00:01:49;;;;;;;8.20;7.65;;;;;;;6.61;93.22;96182.63;2033403;29;21010;-72
2020/12/29 00:02:51;;;;;;;8.48;7.88;;;;;;;6.68;93.41;96183.53;2032731;29;20227;-72
2020/12/29 00:03:52;;;;;;;9.40;8.75;;;;;;;6.67;93.49;96182.00;2032412;29;20591;-73
2020/12/29 00:04:53;;;;;;;9.03;8.43;;;;;;;6.61;93.48;96174.66;2032580;29;20240;-73
2020/12/29 00:05:53;;;;;;;9.55;8.95;;;;;;;6.65;93.60;96178.94;2032589;29;20234;-73
2020/12/29 00:06:56;;;;;;;8.83;8.27;;;;;;;6.65;93.37;96181.59;2033087;29;20228;-73
2020/12/29 00:07:57;;;;;;;9.73;8.93;;;;;;;6.67;93.22;96170.63;2024973;29;20232;-73
2020/12/29 00:08:58;;;;;;;9.23;8.63;;;;;;;6.61;93.58;96170.13;2032776;29;20687;-72
2020/12/29 00:09:59;;;;;;;9.65;8.85;;;;;;;6.56;93.94;96170.38;2032666;29;20574;-72
2020/12/29 00:11:00;;;;;;;9.17;8.57;;;;;;;6.49;94.31;96178.13;2032685;29;20219;-73
2020/12/29 00:12:01;;;;;;;8.90;8.30;;;;;;;6.44;94.54;96178.41;2032785;29;20228;-73
2020/12/29 00:13:02;;;;;;;8.73;8.13;;;;;;;6.42;94.58;96180.59;2033482;29;20282;-72
2020/12/29 00:14:03;;;;;;;9.40;8.60;;;;;;;6.33;94.57;96167.50;2032821;29;20238;-72
2020/12/29 00:15:04;;;;;;;9.07;8.30;;;;;;;6.26;95.02;96163.94;2032787;29;20223;-73
2020/12/29 00:16:05;;;;;;;9.30;8.40;;;;;;;6.24;95.58;96165.03;2033502;29;20220;-72
2020/12/29 00:17:06;;;;;;;8.90;8.20;;;;;;;6.22;95.78;96166.47;2033449;29;20243;-72
2020/12/29 00:18:07;;;;;;;9.40;8.63;;;;;;;6.19;96.05;96172.47;2033239;29;20235;-73
2020/12/29 00:19:09;;;;;;;8.93;8.33;;;;;;;6.16;95.94;96158.00;2033267;29;20314;-74
2020/12/29 00:20:10;;;;;;;8.52;7.97;;;;;;;6.14;96.18;96151.50;2033357;29;20985;-73
2020/12/29 00:21:18;;;;;;;9.50;8.87;;;;;;;6.04;96.30;96150.13;2032495;29;20626;-73
2020/12/29 00:22:19;;;;;;;10.00;9.27;;;;;;;6.03;96.46;96153.88;2032760;29;20738;-72
2020/12/29 00:23:21;;;;;;;9.73;8.93;;;;;;;6.04;96.42;96150.13;2033411;29;20246;-73
2020/12/29 00:24:22;;;;;;;9.02;8.43;;;;;;;6.05;96.60;96150.88;2032917;29;20250;-73
2020/12/29 00:25:23;;;;;;;9.43;8.60;;;;;;;6.07;96.87;96154.72;2032618;29;20243;-73
2020/12/29 00:26:25;;;;;;;9.07;8.27;;;;;;;6.08;96.81;96151.00;2024729;29;20457;-72
2020/12/29 00:27:27;;;;;;;9.70;9.00;;;;;;;6.05;96.92;96143.72;2024927;29;20759;-72
2020/12/29 00:28:27;;;;;;;9.23;8.70;;;;;;;6.00;97.01;96137.91;2032474;29;20250;-73
2020/12/29 00:29:28;;;;;;;9.50;8.90;;;;;;;6.07;97.01;96143.38;2033320;29;20224;-72
2020/12/29 00:30:29;;;;;;;10.00;9.32;;;;;;;6.01;97.33;96124.34;2032845;29;20219;-72
2020/12/29 00:31:30;;;;;;;9.87;9.17;;;;;;;6.04;97.33;96133.47;2032568;29;20258;-73
2020/12/29 00:32:31;;;;;;;10.13;9.43;;;;;;;6.02;96.90;96136.47;2032700;29;20231;-72
2020/12/29 00:33:33;;;;;;;9.53;8.70;;;;;;;5.96;97.14;96137.81;2032603;29;20234;-72
2020/12/29 00:34:33;;;;;;;9.98;8.82;;;;;;;6.02;97.15;96138.34;2032471;29;20227;-72
2020/12/29 00:35:35;;;;;;;10.07;8.70;;;;;;;5.97;97.33;96133.28;2032484;29;20227;-72
2020/12/29 00:36:35;;;;;;;9.50;8.88;;;;;;;5.94;97.35;96126.81;2024773;29;20277;-73
2020/12/29 00:37:37;;;;;;;8.97;8.43;;;;;;;5.95;97.59;96120.41;2024693;29;20224;-72
2020/12/29 00:38:38;;;;;;;9.98;9.07;;;;;;;5.94;97.64;96116.22;2024283;29;20580;-73
2020/12/29 00:39:39;;;;;;;9.37;8.77;;;;;;;6.26;96.66;96117.06;2024409;29;20255;-73
2020/12/29 00:40:40;;;;;;;9.38;8.80;;;;;;;6.31;95.88;96113.38;2024654;29;20239;-72
2020/12/29 00:41:41;;;;;;;9.40;8.80;;;;;;;6.33;95.80;96108.50;2032480;29;20311;-72
2020/12/29 00:42:42;;;;;;;9.77;9.07;;;;;;;6.43;95.40;96108.78;2032357;29;20319;-73
2020/12/29 00:43:43;;;;;;;9.10;8.40;;;;;;;6.48;94.68;96097.16;2032488;29;20231;-72
2020/12/29 00:44:44;;;;;;;9.57;9.07;;;;;;;6.51;95.02;96099.09;2024857;29;20315;-72
2020/12/29 00:45:45;;;;;;;9.80;9.20;;;;;;;6.53;94.38;96085.53;2024621;29;20291;-73
2020/12/29 00:46:46;;;;;;;8.77;8.27;;;;;;;6.64;93.94;96100.56;2032511;29;20679;-73
2020/12/29 00:47:47;;;;;;;10.10;9.40;;;;;;;6.71;93.62;96113.22;2032316;29;20652;-73
2020/12/29 00:48:49;;;;;;;9.90;9.20;;;;;;;6.97;92.52;96100.19;2032196;29;20224;-72
2020/12/29 00:49:50;;;;;;;10.32;9.73;;;;;;;7.11;91.39;96101.63;2032394;29;20766;-72
2020/12/29 00:50:51;;;;;;;9.85;9.25;;;;;;;7.24;90.53;96097.75;2024126;29;20640;-74
2020/12/29 00:51:53;;;;;;;9.90;9.20;;;;;;;7.35;89.55;96098.72;2032192;29;20243;-73
2020/12/29 00:52:58;;;;;;;10.57;9.80;;;;;;;7.43;89.36;96099.66;2024994;29;20243;-72
2020/12/29 00:54:03;;;;;;;9.63;9.02;;;;;;;7.50;88.74;96095.25;2025148;29;20617;-72
2020/12/29 00:55:11;;;;;;;9.35;8.85;;;;;;;7.55;88.22;96104.81;2032022;29;20227;-72
2020/12/29 00:56:21;;;;;;;9.95;9.35;;;;;;;7.53;88.44;96093.78;2032420;29;20691;-72
2020/12/29 00:57:26;;;;;;;9.50;8.90;;;;;;;7.50;88.33;96089.19;2024586;29;20242;-72
2020/12/29 00:58:28;;;;;;;9.45;8.95;;;;;;;7.48;88.75;96092.19;2032311;29;20242;-72
2020/12/29 00:59:29;;;;;;;8.50;7.95;;;;;;;7.61;87.81;96084.84;2032372;29;20219;-72
2020/12/29 01:00:30;;;;;;;9.30;8.80;;;;;;;7.63;87.59;96083.38;2024397;29;20320;-72
2020/12/29 01:01:36;;;;;;;9.48;8.88;;;;;;;7.63;87.50;96087.94;2032361;29;20726;-72
2020/12/29 01:03:03;;;;;;;10.07;9.23;;;;;;;7.64;87.46;96076.19;2034253;29;20250;-72
2020/12/29 01:04:04;;;;;;;9.48;8.77;;;;;;;7.73;86.94;96087.38;2032183;29;20279;-72
2020/12/29 01:05:05;;;;;;;8.88;8.27;;;;;;;7.74;87.09;96091.56;2032252;29;20227;-72
2020/12/29 01:06:06;;;;;;;9.13;8.43;;;;;;;7.69;87.13;96081.22;2024422;29;20267;-72
2020/12/29 01:07:08;;;;;;;8.90;8.33;;;;;;;7.66;87.34;96084.59;2024142;29;20224;-73
2020/12/29 01:08:11;;;;;;;9.30;8.70;;;;;;;7.69;87.18;96081.22;2024636;29;20480;-72
2020/12/29 01:09:20;;;;;;;9.35;8.65;;;;;;;7.72;87.17;96080.53;2025545;29;20651;-72
2020/12/29 01:10:21;;;;;;;9.50;8.80;;;;;;;7.69;87.22;96083.13;2032282;29;20710;-72
2020/12/29 01:11:50;;;;;;;9.32;8.73;;;;;;;7.75;86.69;96079.84;2032386;28;20235;-72
2020/12/29 01:12:50;;;;;;;9.65;8.82;;;;;;;7.73;86.92;96076.78;2032265;29;20227;-72
2020/12/29 01:13:52;;;;;;;9.43;8.83;;;;;;;7.70;87.28;96077.47;2024508;29;20238;-72
2020/12/29 01:14:53;;;;;;;9.60;9.00;;;;;;;7.76;87.06;96084.03;2024047;29;20638;-72
2020/12/29 01:15:59;;;;;;;9.18;8.48;;;;;;;7.76;87.11;96080.59;2025124;29;20681;-72
2020/12/29 01:17:02;;;;;;;9.60;8.98;;;;;;;7.78;86.93;96079.13;2032301;29;20227;-73
2020/12/29 01:18:03;;;;;;;10.17;9.47;;;;;;;7.80;86.92;96079.53;2032317;29;20219;-72
2020/12/29 01:19:04;;;;;;;9.27;8.68;;;;;;;7.75;87.34;96073.75;2032075;29;20652;-73
2020/12/29 01:20:05;;;;;;;10.10;9.40;;;;;;;7.87;86.89;96084.22;2033106;29;20228;-72
2020/12/29 01:21:08;;;;;;;9.68;8.98;;;;;;;7.77;86.90;96090.88;2032358;29;20710;-73
2020/12/29 01:22:09;;;;;;;9.50;8.80;;;;;;;7.77;86.95;96080.25;2031817;29;20231;-72
2020/12/29 01:23:11;;;;;;;10.00;9.30;;;;;;;7.84;86.58;96088.34;2032892;29;20230;-74
2020/12/29 01:24:12;;;;;;;9.40;8.80;;;;;;;7.92;86.34;96076.75;2032136;29;20254;-72
2020/12/29 01:25:13;;;;;;;10.35;9.60;;;;;;;7.88;86.50;96073.25;2032253;29;20230;-72
2020/12/29 01:26:21;;;;;;;9.90;9.30;;;;;;;7.94;86.75;96093.09;2032016;29;20306;-72
2020/12/29 01:27:21;;;;;;;9.85;9.15;;;;;;;7.89;86.62;96080.09;2032009;29;20258;-74
2020/12/29 01:28:22;;;;;;;9.67;8.97;;;;;;;7.89;86.38;96080.09;2032286;29;20257;-74
2020/12/29 01:29:23;;;;;;;9.45;8.85;;;;;;;7.92;86.43;96063.47;2032117;29;20256;-72
2020/12/29 01:30:25;;;;;;;9.53;8.93;;;;;;;7.92;85.82;96060.06;2024124;29;20252;-72
2020/12/29 01:31:27;;;;;;;9.25;8.65;;;;;;;7.90;86.27;96049.75;2024293;29;20224;-73
2020/12/29 01:32:28;;;;;;;9.63;9.00;;;;;;;7.93;85.99;96064.25;2032229;29;20227;-72
2020/12/29 01:33:29;;;;;;;9.23;8.57;;;;;;;7.93;86.42;96065.00;2032706;29;20227;-71
2020/12/29 01:34:30;;;;;;;8.83;8.33;;;;;;;7.94;86.21;96066.53;2032910;29;20302;-72
2020/12/29 01:35:31;;;;;;;8.23;7.78;;;;;;;7.96;86.18;96055.56;2032087;29;20219;-72
2020/12/29 01:36:32;;;;;;;10.00;9.30;;;;;;;7.93;86.66;96070.31;2032121;29;20737;-73
2020/12/29 01:37:33;;;;;;;9.25;8.45;;;;;;;7.97;86.52;96066.94;2032312;29;20686;-72
2020/12/29 01:38:35;;;;;;;9.63;8.70;;;;;;;7.92;86.55;96055.50;2031961;29;20671;-72
2020/12/29 01:39:36;;;;;;;9.43;8.82;;;;;;;7.88;86.92;96054.66;2032133;29;20718;-72
2020/12/29 01:40:37;;;;;;;9.90;9.20;;;;;;;7.86;87.46;96054.25;2032461;29;20660;-74
2020/12/29 01:41:38;;;;;;;9.40;8.60;;;;;;;7.80;87.65;96054.88;2032035;29;20235;-73
2020/12/29 01:42:39;;;;;;;9.40;8.60;;;;;;;7.76;87.79;96057.47;2032070;29;20228;-73
2020/12/29 01:43:40;;;;;;;9.93;9.07;;;;;;;7.76;88.07;96060.13;2032759;29;20314;-73
2020/12/29 01:44:41;;;;;;;9.00;8.40;;;;;;;7.72;88.31;96059.28;2032041;29;20224;-72
2020/12/29 01:45:42;;;;;;;9.50;8.90;;;;;;;7.69;88.30;96054.69;2032040;29;20242;-72
2020/12/29 01:46:44;;;;;;;8.90;8.30;;;;;;;7.75;87.99;96063.91;2031930;29;20308;-73
2020/12/29 01:47:47;;;;;;;10.02;9.07;;;;;;;7.71;88.03;96051.69;2031839;29;20694;-73
2020/12/29 01:48:48;;;;;;;10.02;9.13;;;;;;;7.71;88.00;96057.00;2032061;29;20246;-73
2020/12/29 01:49:48;;;;;;;10.10;9.30;;;;;;;7.69;87.65;96052.03;2032211;29;20260;-72
2020/12/29 01:50:50;;;;;;;9.70;9.10;;;;;;;7.70;87.81;96048.25;2031885;29;20318;-73
2020/12/29 01:51:50;;;;;;;10.38;9.52;;;;;;;7.74;87.83;96048.34;2032006;29;20242;-72
2020/12/29 01:52:56;;;;;;;10.20;9.40;;;;;;;7.66;87.90;96044.78;2032005;29;20243;-72
2020/12/29 01:53:58;;;;;;;9.80;9.00;;;;;;;7.69;87.77;96051.28;2031743;29;20666;-73
2020/12/29 01:55:00;;;;;;;9.30;8.70;;;;;;;7.68;88.06;96053.16;2032729;29;20223;-73
2020/12/29 01:56:02;;;;;;;9.30;8.55;;;;;;;7.67;87.77;96045.56;2031959;29;20228;-72
2020/12/29 01:57:03;;;;;;;8.90;8.30;;;;;;;7.72;87.98;96048.69;2031943;29;20215;-72
2020/12/29 01:58:04;;;;;;;10.00;9.20;;;;;;;7.69;88.21;96049.38;2032065;29;20770;-73
2020/12/29 01:59:09;;;;;;;9.60;9.00;;;;;;;7.64;88.36;96042.50;2032782;29;20733;-73
2020/12/29 02:00:12;;;;;;;9.05;8.45;;;;;;;7.65;87.98;96051.97;2032442;29;20747;-72
2020/12/29 02:01:16;;;;;;;9.32;8.73;;;;;;;7.61;88.12;96045.06;2032683;29;20232;-73
2020/12/29 02:02:17;;;;;;;9.77;8.97;;;;;;;7.64;88.29;96047.00;2032540;29;20243;-72
2020/12/29 02:03:18;;;;;;;9.13;8.30;;;;;;;7.63;88.86;96040.16;2032733;29;20228;-72
2020/12/29 02:04:19;;;;;;;9.13;8.63;;;;;;;7.58;88.76;96043.88;2032614;29;20234;-73
2020/12/29 02:05:20;;;;;;;9.57;8.80;;;;;;;7.61;88.34;96042.41;2032687;29;20231;-73
2020/12/29 02:06:21;;;;;;;9.50;8.80;;;;;;;7.54;88.24;96036.97;2032616;29;20306;-72
2020/12/29 02:07:22;;;;;;;10.02;9.40;;;;;;;7.45;88.51;96039.06;2032254;29;20286;-73
2020/12/29 02:08:24;;;;;;;9.27;8.57;;;;;;;7.55;88.75;96046.44;2031821;29;20223;-73
2020/12/29 02:09:26;;;;;;;8.98;8.38;;;;;;;7.58;88.26;96045.78;2031716;29;20314;-72
2020/12/29 02:10:27;;;;;;;9.35;8.75;;;;;;;7.63;88.03;96048.88;2031942;29;20243;-73
2020/12/29 02:11:28;;;;;;;9.20;8.60;;;;;;;7.67;87.59;96048.97;2032618;29;20283;-73
2020/12/29 02:12:30;;;;;;;9.90;9.10;;;;;;;7.67;88.06;96046.31;2032549;29;20223;-73
2020/12/29 02:13:39;;;;;;;9.55;8.95;;;;;;;7.59;88.02;96039.34;2032612;29;20224;-72
2020/12/29 02:14:40;;;;;;;9.55;8.95;;;;;;;7.65;88.10;96051.97;2031399;29;20239;-72
2020/12/29 02:15:40;;;;;;;9.57;8.88;;;;;;;7.59;88.56;96039.34;2031760;29;20283;-72
2020/12/29 02:16:44;;;;;;;9.03;8.43;;;;;;;7.61;88.50;96042.41;2031596;29;20243;-72
2020/12/29 02:17:45;;;;;;;9.63;8.82;;;;;;;7.49;88.96;96031.94;2031820;29;20223;-72
2020/12/29 02:18:46;;;;;;;9.30;8.60;;;;;;;7.51;89.17;96032.38;2024154;29;20228;-72
2020/12/29 02:19:47;;;;;;;10.10;9.25;;;;;;;7.45;89.48;96033.75;2031918;29;20710;-72
2020/12/29 02:20:48;;;;;;;9.80;9.10;;;;;;;7.49;89.51;96040.69;2031866;29;20650;-72
2020/12/29 02:21:51;;;;;;;9.82;9.20;;;;;;;7.47;89.53;96042.13;2031791;29;20231;-72
2020/12/29 02:22:54;;;;;;;9.55;8.85;;;;;;;7.35;89.86;96038.50;2032079;29;20223;-73
2020/12/29 02:23:54;;;;;;;8.98;8.40;;;;;;;7.25;90.66;96036.41;2031556;29;20277;-73
2020/12/29 02:24:56;;;;;;;9.60;8.70;;;;;;;7.29;90.89;96029.28;2031789;29;20234;-73
2020/12/29 02:25:57;;;;;;;9.40;8.82;;;;;;;7.28;90.85;96030.41;2031953;29;20238;-73
2020/12/29 02:26:58;;;;;;;9.30;8.60;;;;;;;7.16;91.28;96022.59;2031895;29;20270;-72
2020/12/29 02:28:00;;;;;;;9.80;9.20;;;;;;;7.18;91.25;96027.53;2031735;29;20230;-72
2020/12/29 02:29:04;;;;;;;12.10;10.02;;;;;;;7.12;91.15;96016.44;2031753;29;20219;-74
2020/12/29 02:30:05;;;;;;;9.23;8.63;;;;;;;7.14;91.59;96021.41;2031811;29;20231;-72
2020/12/29 02:31:06;;;;;;;10.50;9.70;;;;;;;7.14;91.38;96019.53;2031665;29;20232;-73
2020/12/29 02:32:07;;;;;;;9.55;8.90;;;;;;;7.20;91.70;96026.06;2031283;29;20243;-74
2020/12/29 02:33:08;;;;;;;10.07;9.37;;;;;;;7.21;91.68;96032.13;2031716;29;20239;-73
2020/12/29 02:34:08;;;;;;;10.70;9.80;;;;;;;7.24;91.26;96031.47;2032605;29;20231;-73
2020/12/29 02:35:11;;;;;;;9.97;9.27;;;;;;;7.24;91.11;96034.88;2032391;29;20698;-73
2020/12/29 02:36:12;;;;;;;9.05;8.55;;;;;;;7.20;91.26;96018.13;2032407;29;20227;-73
2020/12/29 02:37:13;;;;;;;10.20;9.50;;;;;;;7.24;91.01;96026.16;2032093;29;20742;-73
2020/12/29 02:38:19;;;;;;;9.38;8.73;;;;;;;7.24;91.15;96023.50;2031579;29;20223;-72
2020/12/29 02:39:20;;;;;;;10.48;9.70;;;;;;;7.13;91.43;96010.03;2031567;29;20234;-72
2020/12/29 02:40:21;;;;;;;9.57;8.88;;;;;;;7.15;91.73;96004.38;2031642;29;20275;-72
2020/12/29 02:41:22;;;;;;;9.47;8.77;;;;;;;7.21;91.21;95995.81;2023493;29;20228;-74
2020/12/29 02:42:23;;;;;;;10.27;9.55;;;;;;;7.25;91.11;95991.34;2031643;29;20227;-73
2020/12/29 02:43:24;;;;;;;9.87;9.17;;;;;;;7.23;91.22;95990.91;2032174;29;20315;-72
2020/12/29 02:44:25;;;;;;;10.20;9.50;;;;;;;7.21;91.90;95993.16;2032423;29;20227;-73
2020/12/29 02:45:26;;;;;;;10.07;9.40;;;;;;;7.14;92.38;95995.66;2032405;29;20231;-72
2020/12/29 02:46:27;;;;;;;10.05;9.35;;;;;;;7.02;92.75;95990.47;2031463;29;20314;-72
2020/12/29 02:47:28;;;;;;;10.43;9.73;;;;;;;7.02;92.86;95990.47;2023626;29;20227;-72
2020/12/29 02:48:29;;;;;;;10.43;9.48;;;;;;;6.93;93.06;95982.72;2031824;29;20231;-73
2020/12/29 02:49:32;;;;;;;10.27;9.53;;;;;;;6.98;93.24;95994.94;2032459;29;20283;-73
2020/12/29 02:50:33;;;;;;;9.82;9.13;;;;;;;7.03;93.06;95992.78;2032126;29;20228;-73
2020/12/29 02:51:34;;;;;;;10.10;9.30;;;;;;;7.08;92.84;96005.75;2032145;29;20360;-73
2020/12/29 02:52:35;;;;;;;10.00;9.30;;;;;;;7.05;92.62;96016.31;2032334;29;20241;-72
2020/12/29 02:53:37;;;;;;;10.57;9.67;;;;;;;7.15;92.56;96020.28;2032429;29;20223;-73
2020/12/29 02:54:38;;;;;;;9.88;9.20;;;;;;;7.09;92.49;96017.13;2031988;29;20603;-73
2020/12/29 02:55:39;;;;;;;10.17;9.17;;;;;;;7.08;92.58;96016.38;2032426;29;20258;-73
2020/12/29 02:56:40;;;;;;;10.15;9.35;;;;;;;7.03;92.88;96024.59;2032332;29;20246;-73
2020/12/29 02:57:41;;;;;;;9.50;8.70;;;;;;;7.07;92.90;96024.69;2032404;29;20247;-73
2020/12/29 02:58:41;;;;;;;9.48;8.88;;;;;;;7.05;93.46;96030.31;2031339;29;20737;-73
2020/12/29 02:59:42;;;;;;;9.90;9.20;;;;;;;7.02;93.64;96025.69;2031487;29;20657;-73
2020/12/29 03:00:43;;;;;;;9.52;8.90;;;;;;;6.99;94.42;96021.09;2031594;29;20231;-73
2020/12/29 03:01:44;;;;;;;9.93;9.23;;;;;;;7.01;94.39;96026.06;2031742;29;20243;-72
2020/12/29 03:02:45;;;;;;;9.85;9.15;;;;;;;7.05;94.44;96025.03;2032322;29;20235;-72
2020/12/29 03:03:46;;;;;;;9.97;9.27;;;;;;;7.12;94.83;96021.72;2031593;29;20258;-72
2020/12/29 03:04:47;;;;;;;9.85;9.15;;;;;;;7.19;94.36;96027.19;2031623;29;20238;-72
2020/12/29 03:05:48;;;;;;;12.10;11.00;;;;;;;7.14;94.81;96022.19;2031421;29;20310;-72
2020/12/29 03:06:49;;;;;;;11.80;11.00;;;;;;;7.11;95.00;96025.50;2024040;29;20232;-73
2020/12/29 03:07:50;;;;;;;12.03;11.13;;;;;;;7.02;95.63;96015.09;2031626;29;20219;-73
2020/12/29 03:08:52;;;;;;;11.60;10.90;;;;;;;6.98;96.14;96022.22;2031563;29;20223;-73
2020/12/29 03:09:52;;;;;;;11.70;10.80;;;;;;;7.02;96.85;96016.97;2031158;29;20635;-74
2020/12/29 03:10:54;;;;;;;11.43;10.73;;;;;;;6.95;96.88;96011.53;2023694;29;20315;-72
2020/12/29 03:11:54;;;;;;;11.50;10.80;;;;;;;6.89;96.93;96020.88;2031490;29;20234;-73
2020/12/29 03:12:56;;;;;;;11.83;11.00;;;;;;;6.82;97.70;96015.44;2039397;29;20226;-73
2020/12/29 03:13:58;;;;;;;11.68;10.88;;;;;;;6.78;98.22;96005.53;2032300;29;20303;-73
2020/12/29 03:14:59;;;;;;;12.18;11.25;;;;;;;6.79;98.88;96007.06;2032262;29;20227;-72
2020/12/29 03:16:00;;;;;;;11.85;11.07;;;;;;;6.78;99.04;95994.94;2031758;29;20692;-72
2020/12/29 03:17:01;;;;;;;12.60;11.50;;;;;;;6.67;99.40;95980.66;2031651;29;20420;-73
2020/12/29 03:18:02;;;;;;;12.10;11.32;;;;;;;6.63;99.78;95984.38;2032375;29;20231;-74
2020/12/29 03:19:03;;;;;;;12.10;11.30;;;;;;;6.61;100.00;95968.81;2031762;29;20335;-73
2020/12/29 03:20:05;;;;;;;12.32;11.32;;;;;;;6.56;100.00;95970.97;2031626;29;20721;-73
2020/12/29 03:21:06;;;;;;;12.50;11.50;;;;;;;6.60;100.00;95969.16;2031455;29;20271;-72
2020/12/29 03:22:07;;;;;;;12.10;11.40;;;;;;;6.68;100.00;95949.66;2031126;29;20230;-74
2020/12/29 03:23:08;;;;;;;12.15;11.45;;;;;;;6.66;100.00;95946.56;2031477;29;20234;-73
2020/12/29 03:24:10;;;;;;;12.47;11.57;;;;;;;6.58;100.00;95960.78;2031554;29;20318;-73
2020/12/29 03:25:11;;;;;;;12.13;11.35;;;;;;;6.54;100.00;95959.94;2032270;29;20720;-73
2020/12/29 03:26:12;;;;;;;12.17;11.47;;;;;;;6.68;100.00;95966.31;2032167;29;20597;-73
2020/12/29 03:27:13;;;;;;;12.15;11.25;;;;;;;6.73;100.00;95952.81;2032159;29;20234;-73
2020/12/29 03:28:14;;;;;;;12.20;11.40;;;;;;;6.66;100.00;95941.28;2032232;29;20223;-73
2020/12/29 03:29:16;;;;;;;12.00;11.20;;;;;;;6.65;100.00;95945.81;2032443;29;20228;-73
2020/12/29 03:30:16;;;;;;;11.93;11.20;;;;;;;6.66;100.00;95950.00;2032260;29;20689;-72
2020/12/29 03:31:17;;;;;;;11.57;10.87;;;;;;;6.69;100.00;95951.19;2032031;29;20578;-72
2020/12/29 03:32:18;;;;;;;11.55;10.85;;;;;;;6.72;99.98;95953.91;2031448;29;20230;-72
2020/12/29 03:33:19;;;;;;;11.17;10.47;;;;;;;6.65;99.77;95951.13;2031554;29;20242;-73
2020/12/29 03:34:24;;;;;;;11.65;10.82;;;;;;;6.63;100.00;95937.44;2031371;29;20597;-72
2020/12/29 03:35:25;;;;;;;10.40;9.70;;;;;;;6.62;100.00;95935.16;2031091;29;20718;-72
2020/12/29 03:36:26;;;;;;;10.00;9.40;;;;;;;6.64;100.00;95935.56;2031417;29;20227;-73
2020/12/29 03:37:27;;;;;;;9.67;8.93;;;;;;;6.75;100.00;95937.31;2032413;29;20667;-73
2020/12/29 03:38:28;;;;;;;9.60;8.98;;;;;;;6.68;100.00;95931.09;2032282;29;20231;-72
2020/12/29 03:39:30;;;;;;;9.50;8.87;;;;;;;6.58;100.00;95929.00;2031600;29;20322;-72
2020/12/29 03:40:31;;;;;;;9.80;9.20;;;;;;;6.48;100.00;95927.66;2031598;29;20314;-72
2020/12/29 03:41:32;;;;;;;9.20;8.60;;;;;;;6.47;100.00;95928.78;2032310;29;20235;-71
2020/12/29 03:42:33;;;;;;;9.90;9.20;;;;;;;6.41;100.00;95919.56;2032404;29;20231;-71
2020/12/29 03:43:35;;;;;;;9.82;9.25;;;;;;;6.30;100.00;95906.09;2032268;29;20227;-72
2020/12/29 03:44:35;;;;;;;9.20;8.70;;;;;;;6.32;100.00;95913.69;2031454;29;20222;-71
2020/12/29 03:45:37;;;;;;;9.63;8.93;;;;;;;6.30;100.00;95919.34;2031593;29;20766;-72
2020/12/29 03:46:38;;;;;;;9.55;8.95;;;;;;;6.21;100.00;95916.09;2031386;29;20307;-72
2020/12/29 03:47:39;;;;;;;9.45;8.90;;;;;;;6.16;100.00;95925.06;2031567;29;20255;-71
2020/12/29 03:48:40;;;;;;;10.05;9.25;;;;;;;6.13;100.00;95919.72;2032155;29;20232;-72
2020/12/29 03:49:41;;;;;;;10.20;9.50;;;;;;;6.01;100.00;95910.00;2032553;29;20340;-72
2020/12/29 03:50:42;;;;;;;10.32;9.43;;;;;;;6.01;100.00;95902.06;2032832;29;20239;-72
2020/12/29 03:51:43;;;;;;;10.00;9.40;;;;;;;6.08;100.00;95917.31;2032515;29;20254;-72
2020/12/29 03:52:45;;;;;;;9.48;8.95;;;;;;;5.97;100.00;95906.50;2032874;29;20231;-72
2020/12/29 03:53:46;;;;;;;9.90;9.30;;;;;;;6.09;100.00;95909.06;2032784;29;20227;-72
2020/12/29 03:54:48;;;;;;;9.70;9.10;;;;;;;6.08;100.00;95910.16;2025096;29;20228;-72
2020/12/29 03:55:49;;;;;;;9.10;8.60;;;;;;;6.33;100.00;95915.22;2033047;29;20297;-72
2020/12/29 03:56:50;;;;;;;9.40;8.90;;;;;;;6.35;100.00;95897.13;2033510;29;20227;-72
2020/12/29 03:57:51;;;;;;;9.13;8.70;;;;;;;6.44;100.00;95908.28;2032675;29;20228;-72
2020/12/29 03:58:52;;;;;;;8.60;8.10;;;;;;;6.41;100.00;95904.44;2032331;29;20312;-74
2020/12/29 03:59:53;;;;;;;8.60;8.13;;;;;;;6.46;100.00;95909.47;2032871;29;20290;-73
2020/12/29 04:00:54;;;;;;;8.70;8.00;;;;;;;6.47;100.00;95903.06;2032863;29;20306;-73
2020/12/29 04:01:54;;;;;;;8.80;8.30;;;;;;;6.62;99.00;95908.66;2032843;29;20231;-73
2020/12/29 04:02:56;;;;;;;8.60;8.20;;;;;;;6.81;97.94;95911.31;2032644;29;20323;-72
2020/12/29 04:03:57;;;;;;;8.70;8.30;;;;;;;6.85;97.58;95908.72;2032818;29;20242;-73
2020/12/29 04:04:58;;;;;;;8.60;8.20;;;;;;;6.86;96.85;95900.44;2033479;29;20746;-73
2020/12/29 04:05:59;;;;;;;8.10;7.70;;;;;;;6.92;96.74;95911.53;2032773;29;20668;-73
2020/12/29 04:06:59;;;;;;;8.10;7.70;;;;;;;6.94;95.82;95891.50;2032862;29;20223;-73
2020/12/29 04:08:01;;;;;;;8.20;7.80;;;;;;;6.96;95.75;95893.81;2033548;29;20234;-72
2020/12/29 04:09:02;;;;;;;7.63;7.22;;;;;;;6.99;95.93;95901.84;2033577;29;20215;-73
2020/12/29 04:10:04;;;;;;;7.67;7.27;;;;;;;6.97;95.93;95893.47;2033475;29;20724;-73
2020/12/29 04:11:05;;;;;;;7.82;7.43;;;;;;;6.99;95.71;95891.22;2032709;29;20706;-72
2020/12/29 04:12:06;;;;;;;7.77;7.37;;;;;;;7.15;94.52;95893.03;2025173;29;20637;-73
2020/12/29 04:13:06;;;;;;;8.18;7.70;;;;;;;7.11;94.38;95903.56;2032431;29;20668;-73
2020/12/29 04:14:08;;;;;;;8.20;7.80;;;;;;;7.13;94.18;95911.19;2032623;29;20235;-73
2020/12/29 04:15:09;;;;;;;7.85;7.45;;;;;;;7.16;94.33;95916.53;2032680;29;20238;-73
2020/12/29 04:16:10;;;;;;;8.20;7.80;;;;;;;7.26;93.99;95915.97;2033428;29;20264;-72
2020/12/29 04:17:11;;;;;;;8.40;7.82;;;;;;;7.29;93.54;95914.50;2033517;29;20729;-72
2020/12/29 04:18:12;;;;;;;7.73;7.43;;;;;;;7.34;93.09;95919.53;2033419;29;20626;-73
2020/12/29 04:19:13;;;;;;;7.90;7.50;;;;;;;7.32;92.68;95911.16;2032543;29;20235;-73
2020/12/29 04:20:14;;;;;;;7.83;7.43;;;;;;;7.39;92.65;95913.16;2032750;29;20310;-72
2020/12/29 04:21:15;;;;;;;7.95;7.55;;;;;;;7.45;92.85;95917.06;2033431;29;20227;-72
2020/12/29 04:22:16;;;;;;;8.07;7.63;;;;;;;7.44;92.38;95920.81;2033479;29;20310;-72
2020/12/29 04:23:17;;;;;;;8.57;8.18;;;;;;;7.37;92.35;95908.97;2033476;29;20268;-72
2020/12/29 04:24:18;;;;;;;7.70;7.40;;;;;;;7.37;92.33;95910.84;2032675;29;20322;-72
2020/12/29 04:25:20;;;;;;;7.82;7.43;;;;;;;7.43;92.30;95908.69;2032559;29;20295;-72
2020/12/29 04:26:21;;;;;;;7.82;7.53;;;;;;;7.41;92.11;95903.75;2032446;29;20236;-72
2020/12/29 04:27:22;;;;;;;7.70;7.30;;;;;;;7.40;92.15;95906.75;2032285;29;20709;-74
2020/12/29 04:28:23;;;;;;;7.90;7.60;;;;;;;7.44;91.92;95899.59;2032764;29;20606;-73
2020/12/29 04:29:23;;;;;;;7.97;7.57;;;;;;;7.35;92.14;95900.59;2032425;29;20274;-72
2020/12/29 04:30:25;;;;;;;8.13;7.73;;;;;;;7.39;92.72;95916.59;2033455;29;20310;-73
2020/12/29 04:31:25;;;;;;;8.20;7.80;;;;;;;7.35;92.36;95911.19;2033289;29;20235;-72
2020/12/29 04:32:26;;;;;;;7.80;7.40;;;;;;;7.34;91.96;95925.59;2033475;29;20314;-72
2020/12/29 04:33:27;;;;;;;7.93;7.63;;;;;;;7.37;92.40;95922.22;2032481;29;20285;-72
2020/12/29 04:34:29;;;;;;;7.70;7.40;;;;;;;7.29;92.34;95917.91;2032721;29;20223;-72
2020/12/29 04:35:29;;;;;;;11.95;7.80;;;;;;;7.24;93.00;95926.16;2032280;29;20231;-72
2020/12/29 04:36:30;;;;;;;8.70;8.30;;;;;;;7.20;93.30;95933.28;2032732;29;20376;-72
2020/12/29 04:37:31;;;;;;;8.98;8.57;;;;;;;7.14;93.72;95934.69;2033420;29;20291;-73
2020/12/29 04:38:32;;;;;;;9.00;8.60;;;;;;;7.03;94.20;95936.34;2032661;29;20317;-73
2020/12/29 04:39:33;;;;;;;8.70;8.30;;;;;;;6.98;94.57;95937.41;2032585;29;20231;-72
2020/12/29 04:40:35;;;;;;;8.30;8.00;;;;;;;6.96;94.68;95934.34;2033374;29;20230;-72
2020/12/29 04:41:36;;;;;;;8.70;8.30;;;;;;;7.02;94.59;95938.22;2033274;29;20302;-72
2020/12/29 04:42:38;;;;;;;9.10;8.70;;;;;;;6.99;94.45;95944.25;2032866;29;20231;-73
2020/12/29 04:43:39;;;;;;;8.55;8.15;;;;;;;6.95;94.80;95940.75;2032338;29;20239;-72
2020/12/29 04:44:41;;;;;;;7.88;7.57;;;;;;;6.95;95.17;95946.06;2032479;29;20231;-73
2020/12/29 04:45:41;;;;;;;8.02;7.63;;;;;;;6.90;95.19;95946.34;2032468;29;20231;-72
2020/12/29 04:46:43;;;;;;;7.53;7.23;;;;;;;6.87;95.38;95946.28;2024624;29;20236;-72
2020/12/29 04:47:44;;;;;;;8.15;7.72;;;;;;;6.96;95.22;95952.13;2032466;29;20288;-74
2020/12/29 04:48:45;;;;;;;8.80;8.20;;;;;;;6.95;95.31;95948.72;2033151;29;20273;-72
2020/12/29 04:49:46;;;;;;;7.95;7.55;;;;;;;6.93;95.32;95955.47;2033161;29;20679;-72
2020/12/29 04:50:50;;;;;;;8.20;7.80;;;;;;;7.01;95.51;95941.25;2032643;29;20235;-74
2020/12/29 04:51:51;;;;;;;8.32;7.93;;;;;;;6.96;95.46;95950.25;2032189;29;20235;-73